createdAt,value
2018-11-27T05:22:17.566Z,1024.01
2018-11-27T05:23:44.206Z,1024.01
2018-11-27T05:25:11.449Z,1023.99
2018-11-27T05:26:38.701Z,1024.01
2018-11-27T05:28:05.971Z,1024.03
2018-11-27T05:29:33.339Z,1024.02
2018-11-27T05:31:00.565Z,1023.98
2018-11-27T05:32:27.951Z,1023.98
2018-11-27T05:33:55.072Z,1024.00
2018-11-27T05:35:22.263Z,1024.01
2018-11-27T05:36:52.456Z,1024.03
2018-11-27T05:38:16.673Z,1024.01
2018-11-27T05:39:44.003Z,1024.00
2018-11-27T05:41:11.260Z,1024.01
2018-11-27T05:42:38.518Z,1024.01
2018-11-27T05:44:05.818Z,1024.01
2018-11-27T05:45:33.225Z,1024.03
2018-11-27T05:47:00.493Z,1024.06
2018-11-27T05:48:26.505Z,1024.07
2018-11-27T05:54:44.511Z,1024.06
2018-11-27T05:59:15.022Z,1024.09
2018-11-27T06:00:41.543Z,1024.11
2018-11-27T06:02:08.592Z,1024.10
2018-11-27T06:03:35.875Z,1024.09
2018-11-27T06:05:02.738Z,1024.09
2018-11-27T06:06:29.943Z,1024.09
2018-11-27T06:07:57.074Z,1024.10
2018-11-27T06:09:24.430Z,1024.11
2018-11-27T06:10:51.770Z,1024.16
2018-11-27T06:12:18.890Z,1024.17
2018-11-27T06:13:46.233Z,1024.17
2018-11-27T06:15:13.331Z,1024.19
2018-11-27T06:16:40.338Z,1024.22
2018-11-27T06:18:07.588Z,1024.23
2018-11-27T06:19:34.481Z,1024.29
2018-11-27T06:21:01.813Z,1024.28
2018-11-27T06:22:28.749Z,1024.31
2018-11-27T06:23:55.914Z,1024.27
2018-11-27T06:25:23.184Z,1024.29
2018-11-27T06:26:50.349Z,1024.31
2018-11-27T06:28:17.500Z,1024.33
2018-11-27T06:29:44.701Z,1024.35
2018-11-27T06:31:11.706Z,1024.38
2018-11-27T06:32:38.784Z,1024.40
2018-11-27T06:34:06.056Z,1024.40
2018-11-27T06:35:33.210Z,1024.40
2018-11-27T06:37:58.461Z,1024.42
2018-11-27T06:44:06.238Z,1024.47
2018-11-27T06:45:32.867Z,1024.50
2018-11-27T06:46:59.827Z,1024.52
2018-11-27T06:48:26.997Z,1024.53
2018-11-27T06:49:54.101Z,1024.52
2018-11-27T06:51:21.277Z,1024.55
2018-11-27T06:52:48.310Z,1024.53
2018-11-27T06:54:15.493Z,1024.55
2018-11-27T06:55:42.587Z,1024.56
2018-11-27T06:57:09.792Z,1024.57
2018-11-27T06:58:36.877Z,1024.59
2018-11-27T07:00:04.203Z,1024.58
2018-11-27T07:01:31.336Z,1024.57
2018-11-27T07:02:58.570Z,1024.57
2018-11-27T07:04:25.835Z,1024.57
2018-11-27T07:05:52.843Z,1024.58
2018-11-27T07:07:19.736Z,1024.61
2018-11-27T07:08:46.745Z,1024.60
2018-11-27T07:10:13.730Z,1024.63
2018-11-27T07:11:41.055Z,1024.66
2018-11-27T07:19:36.074Z,1024.71
2018-11-27T07:21:02.561Z,1024.72
2018-11-27T07:22:29.642Z,1024.77
2018-11-27T07:23:56.534Z,1024.82
2018-11-27T07:25:23.786Z,1024.81
2018-11-27T07:26:52.911Z,1024.80
2018-11-27T07:28:18.145Z,1024.80
2018-11-27T07:29:45.358Z,1024.79
2018-11-27T07:31:12.525Z,1024.80
2018-11-27T07:32:39.782Z,1024.82
2018-11-27T07:34:06.955Z,1024.84
2018-11-27T07:35:34.216Z,1024.88
2018-11-27T07:37:01.291Z,1024.88
2018-11-27T07:38:28.437Z,1024.92
2018-11-27T07:39:55.659Z,1024.96
2018-11-27T07:41:22.943Z,1024.95
2018-11-27T07:42:50.070Z,1024.94
2018-11-27T07:44:17.185Z,1024.97
2018-11-27T07:45:44.388Z,1024.95
2018-11-27T07:47:11.689Z,1024.94
2018-11-27T07:48:38.761Z,1024.95
2018-11-27T07:50:05.926Z,1024.96
2018-11-27T07:51:33.239Z,1024.96
2018-11-27T07:56:33.551Z,1025.00
2018-11-27T07:58:00.064Z,1025.04
2018-11-27T07:59:27.184Z,1025.09
2018-11-27T08:00:54.578Z,1025.14
2018-11-27T08:02:21.691Z,1025.24
2018-11-27T08:03:48.730Z,1025.28
2018-11-27T08:05:16.027Z,1025.29
2018-11-27T08:06:43.351Z,1025.30
2018-11-27T08:08:10.504Z,1025.33
2018-11-27T08:09:37.749Z,1025.32
2018-11-27T08:11:04.945Z,1025.37
2018-11-27T08:12:32.340Z,1025.39
2018-11-27T08:13:59.486Z,1025.42
2018-11-27T08:15:26.804Z,1025.43
2018-11-27T08:16:53.970Z,1025.43
2018-11-27T08:18:21.242Z,1025.44
2018-11-27T08:19:48.311Z,1025.42
2018-11-27T08:21:15.452Z,1025.44
2018-11-27T08:22:42.740Z,1025.46
2018-11-27T08:24:09.754Z,1025.45
2018-11-27T08:25:36.908Z,1025.45
2018-11-27T08:27:04.008Z,1025.47
2018-11-27T08:28:31.125Z,1025.47
2018-11-27T08:29:58.467Z,1025.48
2018-11-27T08:31:25.690Z,1025.50
2018-11-27T08:32:52.569Z,1025.52
2018-11-27T08:34:19.708Z,1025.53
2018-11-27T08:35:46.839Z,1025.57
2018-11-27T08:37:13.806Z,1025.60
2018-11-27T08:38:40.997Z,1025.63
2018-11-27T08:40:07.892Z,1025.66
2018-11-27T08:41:40.172Z,1025.66
2018-11-27T08:43:02.195Z,1025.67
2018-11-27T08:44:29.515Z,1025.71
2018-11-27T08:45:56.866Z,1025.75
2018-11-27T08:47:23.982Z,1025.77
2018-11-27T08:48:51.153Z,1025.75
2018-11-27T08:50:18.112Z,1025.73
2018-11-27T08:51:45.328Z,1025.76
2018-11-27T08:53:12.405Z,1025.81
2018-11-27T08:54:39.515Z,1025.84
2018-11-27T08:56:06.881Z,1025.87
2018-11-27T08:57:33.994Z,1025.90
2018-11-27T08:59:01.121Z,1025.90
2018-11-27T09:05:18.949Z,1025.94
2018-11-27T09:06:45.558Z,1025.94
2018-11-27T09:08:12.658Z,1025.94
2018-11-27T09:09:39.884Z,1026.01
2018-11-27T09:11:06.907Z,1026.08
2018-11-27T09:12:34.223Z,1026.13
2018-11-27T09:15:38.352Z,1026.15
2018-11-27T09:17:04.932Z,1026.17
2018-11-27T09:18:32.267Z,1026.19
2018-11-27T09:19:59.362Z,1026.21
2018-11-27T09:21:26.517Z,1026.20
2018-11-27T09:22:53.561Z,1026.20
2018-11-27T09:24:20.881Z,1026.19
2018-11-27T09:25:47.981Z,1026.19
2018-11-27T09:27:44.328Z,1026.19
2018-11-27T09:29:10.900Z,1026.19
2018-11-27T09:30:41.162Z,1026.23
2018-11-27T09:34:11.385Z,1026.19
2018-11-27T09:35:38.043Z,1026.17
2018-11-27T09:37:05.142Z,1026.17
2018-11-27T09:41:26.859Z,1026.18
2018-11-27T09:42:53.343Z,1026.17
2018-11-27T09:44:20.253Z,1026.19
2018-11-27T09:45:47.547Z,1026.20
2018-11-27T09:47:14.725Z,1026.22
2018-11-27T09:48:41.674Z,1026.25
2018-11-27T09:50:08.709Z,1026.25
2018-11-27T09:51:35.882Z,1026.26
2018-11-27T09:53:03.018Z,1026.26
2018-11-27T09:54:30.000Z,1026.26
2018-11-27T09:55:57.120Z,1026.28
2018-11-27T09:57:24.145Z,1026.30
2018-11-27T09:58:51.206Z,1026.29
2018-11-27T10:00:18.392Z,1026.28
2018-11-27T10:01:45.299Z,1026.31
2018-11-27T10:03:12.713Z,1026.30
2018-11-27T10:04:39.936Z,1026.31
2018-11-27T10:06:07.302Z,1026.34
2018-11-27T10:07:34.536Z,1026.36
2018-11-27T10:09:01.413Z,1026.37
2018-11-27T10:10:28.598Z,1026.38
2018-11-27T10:12:24.789Z,1026.38
2018-11-27T10:13:51.548Z,1026.39
2018-11-27T10:15:18.682Z,1026.38
2018-11-27T10:16:46.004Z,1026.36
2018-11-27T10:18:13.314Z,1026.38
2018-11-27T10:19:40.368Z,1026.39
2018-11-27T10:21:07.513Z,1026.44
2018-11-27T10:22:34.969Z,1026.41
2018-11-27T10:24:02.120Z,1026.42
2018-11-27T10:25:29.380Z,1026.43
2018-11-27T10:26:56.533Z,1026.45
2018-11-27T10:28:23.736Z,1026.48
2018-11-27T10:29:50.915Z,1026.50
2018-11-27T10:31:18.109Z,1026.51
2018-11-27T10:32:45.332Z,1026.53
2018-11-27T10:34:12.782Z,1026.57
2018-11-27T10:35:39.935Z,1026.58
2018-11-27T10:37:07.104Z,1026.57
2018-11-27T10:38:34.269Z,1026.54
2018-11-27T10:40:01.583Z,1026.55
2018-11-27T10:41:28.618Z,1026.56
2018-11-27T10:42:55.785Z,1026.60
2018-11-27T10:44:22.893Z,1026.63
2018-11-27T10:45:49.938Z,1026.65
2018-11-27T10:47:17.145Z,1026.69
2018-11-27T10:48:44.280Z,1026.69
2018-11-27T10:50:11.561Z,1026.67
2018-11-27T10:51:38.764Z,1026.67
2018-11-27T10:53:05.869Z,1026.65
2018-11-27T10:54:33.126Z,1026.67
2018-11-27T10:56:00.222Z,1026.65
2018-11-27T10:57:27.349Z,1026.64
2018-11-27T10:58:54.444Z,1026.64
2018-11-27T11:00:21.782Z,1026.63
2018-11-27T11:01:48.808Z,1026.66
2018-11-27T11:03:16.073Z,1026.68
2018-11-27T11:04:43.282Z,1026.71
2018-11-27T11:06:10.553Z,1026.74
2018-11-27T11:07:37.750Z,1026.76
2018-11-27T11:09:04.925Z,1026.76
2018-11-27T11:10:31.834Z,1026.77
2018-11-27T11:11:59.317Z,1026.78
2018-11-27T11:13:26.201Z,1026.79
2018-11-27T11:14:53.131Z,1026.76
2018-11-27T11:16:20.297Z,1026.74
2018-11-27T11:17:50.573Z,1026.72
2018-11-27T11:19:18.319Z,1026.74
2018-11-27T11:20:42.033Z,1026.78
2018-11-27T11:22:09.188Z,1026.81
2018-11-27T11:23:36.352Z,1026.83
2018-11-27T11:25:03.526Z,1026.83
2018-11-27T11:26:30.395Z,1026.83
2018-11-27T11:27:57.641Z,1026.82
2018-11-27T11:29:24.648Z,1026.82
2018-11-27T11:30:51.838Z,1026.83
2018-11-27T11:32:19.062Z,1026.84
2018-11-27T11:33:46.238Z,1026.88
2018-11-27T11:35:13.374Z,1026.90
2018-11-27T11:36:40.598Z,1026.93
2018-11-27T11:38:07.482Z,1026.93
2018-11-27T11:39:34.637Z,1026.94
2018-11-27T11:41:01.803Z,1026.97
2018-11-27T11:42:28.981Z,1026.94
2018-11-27T11:43:56.407Z,1026.95
2018-11-27T11:45:23.642Z,1026.97
2018-11-27T11:46:50.882Z,1026.99
2018-11-27T11:48:17.987Z,1027.03
2018-11-27T11:49:45.283Z,1027.01
2018-11-27T11:51:12.527Z,1027.03
2018-11-27T11:52:39.573Z,1027.01
2018-11-27T11:54:06.631Z,1027.03
2018-11-27T11:55:33.993Z,1027.01
2018-11-27T11:57:01.078Z,1027.02
2018-11-27T11:58:27.901Z,1027.04
2018-11-27T11:59:55.010Z,1027.07
2018-11-27T12:01:22.217Z,1027.09
2018-11-27T12:02:49.312Z,1027.10
2018-11-27T12:04:16.532Z,1027.11
2018-11-27T12:05:43.670Z,1027.10
2018-11-27T12:07:10.808Z,1027.15
2018-11-27T12:08:37.861Z,1027.15
2018-11-27T12:10:05.025Z,1027.14
2018-11-27T12:11:32.289Z,1027.15
2018-11-27T12:12:59.511Z,1027.18
2018-11-27T12:14:26.743Z,1027.18
2018-11-27T12:15:53.964Z,1027.17
2018-11-27T12:17:21.062Z,1027.16
2018-11-27T12:18:48.381Z,1027.15
2018-11-27T12:20:15.635Z,1027.14
2018-11-27T12:21:42.958Z,1027.14
2018-11-27T12:23:10.199Z,1027.16
2018-11-27T12:24:37.371Z,1027.18
2018-11-27T12:26:04.692Z,1027.20
2018-11-27T12:27:31.886Z,1027.19
2018-11-27T12:28:59.003Z,1027.19
2018-11-27T12:30:26.251Z,1027.19
2018-11-27T12:31:53.486Z,1027.22
2018-11-27T12:33:20.588Z,1027.24
2018-11-27T12:34:47.742Z,1027.23
2018-11-27T12:36:14.995Z,1027.23
2018-11-27T12:37:42.000Z,1027.21
2018-11-27T12:39:09.223Z,1027.23
2018-11-27T12:40:36.310Z,1027.22
2018-11-27T12:42:03.428Z,1027.25
2018-11-27T12:43:30.457Z,1027.26
2018-11-27T12:44:57.513Z,1027.22
2018-11-27T12:46:24.916Z,1027.19
2018-11-27T12:47:52.171Z,1027.16
2018-11-27T12:49:19.368Z,1027.17
2018-11-27T12:50:46.527Z,1027.15
2018-11-27T12:52:13.748Z,1027.15
2018-11-27T12:53:40.835Z,1027.12
2018-11-27T12:55:08.150Z,1027.12
2018-11-27T12:56:35.170Z,1027.13
2018-11-27T12:58:02.405Z,1027.12
2018-11-27T12:59:29.403Z,1027.11
2018-11-27T13:00:56.519Z,1027.12
2018-11-27T13:02:23.625Z,1027.12
2018-11-27T13:03:50.991Z,1027.13
2018-11-27T13:05:18.227Z,1027.12
2018-11-27T13:06:45.265Z,1027.14
2018-11-27T13:08:12.319Z,1027.14
2018-11-27T13:09:39.665Z,1027.13
2018-11-27T13:11:11.446Z,1027.15
2018-11-27T13:12:34.121Z,1027.18
2018-11-27T13:14:01.214Z,1027.17
2018-11-27T13:15:28.428Z,1027.16
2018-11-27T13:16:55.567Z,1027.19
2018-11-27T13:18:22.681Z,1027.21
2018-11-27T13:19:49.781Z,1027.22
2018-11-27T13:21:16.931Z,1027.23
2018-11-27T13:22:44.439Z,1027.18
2018-11-27T13:24:11.550Z,1027.13
2018-11-27T13:25:38.752Z,1027.15
2018-11-27T13:27:06.134Z,1027.14
2018-11-27T13:28:33.298Z,1027.14
2018-11-27T13:30:00.638Z,1027.14
2018-11-27T13:31:27.582Z,1027.15
2018-11-27T13:32:54.794Z,1027.16
2018-11-27T13:34:22.050Z,1027.17
2018-11-27T13:35:49.214Z,1027.16
2018-11-27T13:37:16.374Z,1027.19
2018-11-27T13:38:43.416Z,1027.20
2018-11-27T13:40:10.552Z,1027.21
2018-11-27T13:41:37.836Z,1027.20
2018-11-27T13:43:05.054Z,1027.18
2018-11-27T13:44:32.448Z,1027.16
2018-11-27T13:46:02.450Z,1027.15
2018-11-27T13:47:26.669Z,1027.18
2018-11-27T13:48:53.815Z,1027.20
2018-11-27T13:50:20.991Z,1027.21
2018-11-27T13:51:48.176Z,1027.21
2018-11-27T13:53:15.299Z,1027.23
2018-11-27T13:54:42.456Z,1027.23
2018-11-27T13:56:09.523Z,1027.20
2018-11-27T13:57:36.533Z,1027.16
2018-11-27T13:59:03.725Z,1027.18
2018-11-27T14:00:30.933Z,1027.20
2018-11-27T14:01:58.007Z,1027.23
2018-11-27T14:03:25.019Z,1027.24
2018-11-27T14:04:52.064Z,1027.24
2018-11-27T14:06:19.432Z,1027.26
2018-11-27T14:07:46.584Z,1027.28
2018-11-27T14:09:13.604Z,1027.28
2018-11-27T14:10:40.817Z,1027.27
2018-11-27T14:12:08.235Z,1027.26
2018-11-27T14:13:35.346Z,1027.26
2018-11-27T14:15:02.396Z,1027.26
2018-11-27T14:16:29.625Z,1027.25
2018-11-27T14:17:56.930Z,1027.27
2018-11-27T14:19:24.028Z,1027.27
2018-11-27T14:20:51.078Z,1027.29
2018-11-27T14:22:18.058Z,1027.31
2018-11-27T14:23:45.186Z,1027.33
2018-11-27T14:25:12.177Z,1027.35
2018-11-27T14:26:39.434Z,1027.36
2018-11-27T14:28:06.455Z,1027.39
2018-11-27T14:29:33.791Z,1027.42
2018-11-27T14:31:00.960Z,1027.45
2018-11-27T14:32:28.036Z,1027.46
2018-11-27T14:33:55.257Z,1027.49
2018-11-27T14:35:22.418Z,1027.49
2018-11-27T14:36:49.655Z,1027.50
2018-11-27T14:38:16.796Z,1027.54
2018-11-27T14:39:43.838Z,1027.56
2018-11-27T14:41:11.012Z,1027.58
2018-11-27T14:42:38.018Z,1027.58
2018-11-27T14:44:05.013Z,1027.60
2018-11-27T14:45:32.096Z,1027.63
2018-11-27T14:46:59.538Z,1027.65
2018-11-27T14:48:26.307Z,1027.67
2018-11-27T14:49:53.626Z,1027.67
2018-11-27T14:51:20.695Z,1027.69
2018-11-27T14:52:47.672Z,1027.69
2018-11-27T14:54:15.054Z,1027.68
2018-11-27T14:55:42.154Z,1027.70
2018-11-27T14:57:09.323Z,1027.74
2018-11-27T14:58:36.290Z,1027.76
2018-11-27T15:00:03.526Z,1027.78
2018-11-27T15:01:30.365Z,1027.77
2018-11-27T15:02:57.580Z,1027.78
2018-11-27T15:04:24.917Z,1027.76
2018-11-27T15:05:52.037Z,1027.77
2018-11-27T15:07:19.230Z,1027.79
2018-11-27T15:08:46.463Z,1027.82
2018-11-27T15:10:13.270Z,1027.86
2018-11-27T15:11:40.527Z,1027.89
2018-11-27T15:13:07.335Z,1027.88
2018-11-27T15:14:34.411Z,1027.89
2018-11-27T15:16:01.536Z,1027.89
2018-11-27T15:17:28.694Z,1027.92
2018-11-27T15:18:55.786Z,1027.93
2018-11-27T15:20:23.030Z,1027.97
2018-11-27T15:21:50.208Z,1028.02
2018-11-27T15:23:17.444Z,1028.00
2018-11-27T15:24:44.547Z,1028.00
2018-11-27T15:26:11.662Z,1028.00
2018-11-27T15:27:38.928Z,1027.99
2018-11-27T15:29:05.982Z,1027.97
2018-11-27T15:30:33.038Z,1027.98
2018-11-27T15:32:00.221Z,1028.00
2018-11-27T15:33:27.366Z,1027.99
2018-11-27T15:34:54.522Z,1028.01
2018-11-27T15:36:21.755Z,1028.00
2018-11-27T15:37:48.780Z,1028.01
2018-11-27T15:39:15.783Z,1027.99
2018-11-27T15:40:43.036Z,1027.99
2018-11-27T15:42:10.141Z,1028.00
2018-11-27T15:43:37.361Z,1027.98
2018-11-27T15:45:04.628Z,1027.99
2018-11-27T15:46:31.953Z,1027.99
2018-11-27T15:47:59.161Z,1027.97
2018-11-27T15:49:26.149Z,1027.97
2018-11-27T15:50:53.474Z,1027.99
2018-11-27T15:52:20.603Z,1028.00
2018-11-27T15:53:47.886Z,1028.01
2018-11-27T15:55:15.068Z,1028.05
2018-11-27T15:56:42.084Z,1028.08
2018-11-27T15:58:09.276Z,1028.10
2018-11-27T15:59:36.646Z,1028.14
2018-11-27T16:01:03.765Z,1028.17
2018-11-27T16:02:31.035Z,1028.18
2018-11-27T16:03:58.140Z,1028.16
2018-11-27T16:05:25.171Z,1028.18
2018-11-27T16:06:52.228Z,1028.22
2018-11-27T16:08:19.506Z,1028.27
2018-11-27T16:09:46.496Z,1028.26
2018-11-27T16:11:13.721Z,1028.29
2018-11-27T16:12:40.987Z,1028.29
2018-11-27T16:14:08.302Z,1028.31
2018-11-27T16:15:35.488Z,1028.29
2018-11-27T16:17:02.783Z,1028.31
2018-11-27T16:18:29.808Z,1028.30
2018-11-27T16:19:56.909Z,1028.31
2018-11-27T16:21:24.121Z,1028.33
2018-11-27T16:22:51.458Z,1028.34
2018-11-27T16:24:18.392Z,1028.32
2018-11-27T16:25:45.546Z,1028.35
2018-11-27T16:27:12.313Z,1028.37
2018-11-27T16:28:39.306Z,1028.38
2018-11-27T16:30:06.564Z,1028.36
2018-11-27T16:31:33.905Z,1028.35
2018-11-27T16:33:01.031Z,1028.35
2018-11-27T16:34:28.161Z,1028.36
2018-11-27T16:35:55.223Z,1028.38
2018-11-27T16:37:22.599Z,1028.37
2018-11-27T16:38:49.837Z,1028.36
2018-11-27T16:40:16.898Z,1028.35
2018-11-27T16:41:44.114Z,1028.35
2018-11-27T16:43:11.319Z,1028.38
2018-11-27T16:44:38.444Z,1028.42
2018-11-27T16:46:05.736Z,1028.43
2018-11-27T16:47:32.629Z,1028.43
2018-11-27T16:48:59.739Z,1028.43
2018-11-27T16:50:26.866Z,1028.45
2018-11-27T16:51:54.056Z,1028.46
2018-11-27T16:53:21.166Z,1028.47
2018-11-27T16:54:48.334Z,1028.48
2018-11-27T16:56:15.508Z,1028.48
2018-11-27T16:57:42.843Z,1028.46
2018-11-27T16:59:09.941Z,1028.46
2018-11-27T17:00:36.997Z,1028.46
2018-11-27T17:02:07.381Z,1028.46
2018-11-27T17:03:31.602Z,1028.46
2018-11-27T17:04:58.875Z,1028.48
2018-11-27T17:06:25.847Z,1028.50
2018-11-27T17:07:53.032Z,1028.50
2018-11-27T17:09:20.278Z,1028.51
2018-11-27T17:10:47.509Z,1028.50
2018-11-27T17:12:14.738Z,1028.53
2018-11-27T17:13:42.120Z,1028.53
2018-11-27T17:15:09.317Z,1028.51
2018-11-27T17:16:36.570Z,1028.51
2018-11-27T17:18:04.001Z,1028.53
2018-11-27T17:19:31.038Z,1028.56
2018-11-27T17:20:58.143Z,1028.60
2018-11-27T17:22:25.371Z,1028.63
2018-11-27T17:23:52.505Z,1028.64
2018-11-27T17:25:19.761Z,1028.64
2018-11-27T17:26:46.848Z,1028.63
2018-11-27T17:28:14.037Z,1028.65
2018-11-27T17:29:41.216Z,1028.67
2018-11-27T17:31:08.528Z,1028.67
2018-11-27T17:32:35.801Z,1028.69
2018-11-27T17:34:02.976Z,1028.71
2018-11-27T17:35:30.035Z,1028.72
2018-11-27T17:36:57.450Z,1028.70
2018-11-27T17:38:24.567Z,1028.70
2018-11-27T17:39:51.748Z,1028.68
2018-11-27T17:41:19.132Z,1028.68
2018-11-27T17:42:46.193Z,1028.70
2018-11-27T17:44:13.492Z,1028.68
2018-11-27T17:45:40.840Z,1028.67
2018-11-27T17:47:07.829Z,1028.69
2018-11-27T17:48:35.183Z,1028.70
2018-11-27T17:50:02.338Z,1028.73
2018-11-27T17:51:29.589Z,1028.73
2018-11-27T17:52:56.840Z,1028.73
2018-11-27T17:54:24.033Z,1028.72
2018-11-27T17:55:51.374Z,1028.69
2018-11-27T17:57:18.519Z,1028.72
2018-11-27T17:58:45.835Z,1028.75
2018-11-27T18:00:13.038Z,1028.78
2018-11-27T18:01:40.291Z,1028.80
2018-11-27T18:03:07.605Z,1028.81
2018-11-27T18:04:34.942Z,1028.81
2018-11-27T18:06:02.206Z,1028.80
2018-11-27T18:07:29.396Z,1028.79
2018-11-27T18:08:56.586Z,1028.78
2018-11-27T18:10:23.866Z,1028.81
2018-11-27T18:11:50.907Z,1028.86
2018-11-27T18:13:18.312Z,1028.86
2018-11-27T18:14:45.542Z,1028.89
2018-11-27T18:16:12.839Z,1028.92
2018-11-27T18:17:40.230Z,1028.94
2018-11-27T18:19:07.494Z,1028.95
2018-11-27T18:20:34.895Z,1028.93
2018-11-27T18:22:02.151Z,1028.95
2018-11-27T18:23:29.397Z,1028.96
2018-11-27T18:24:56.866Z,1028.94
2018-11-27T18:26:24.081Z,1028.96
2018-11-27T18:27:51.437Z,1028.95
2018-11-27T18:29:18.783Z,1028.95
2018-11-27T18:30:45.984Z,1028.89
2018-11-27T18:32:13.140Z,1028.91
2018-11-27T18:33:40.235Z,1028.91
2018-11-27T18:35:07.430Z,1028.90
2018-11-27T18:36:34.668Z,1028.89
2018-11-27T18:38:01.688Z,1028.91
2018-11-27T18:39:28.659Z,1028.93
2018-11-27T18:40:55.896Z,1028.96
2018-11-27T18:42:23.161Z,1028.96
2018-11-27T18:43:50.451Z,1028.96
2018-11-27T18:45:17.758Z,1028.95
2018-11-27T18:46:44.844Z,1028.98
2018-11-27T18:48:12.246Z,1028.99
2018-11-27T18:49:39.280Z,1029.03
2018-11-27T18:51:06.572Z,1029.00
2018-11-27T18:52:33.625Z,1029.00
2018-11-27T18:54:00.584Z,1028.99
2018-11-27T18:55:27.975Z,1028.95
2018-11-27T18:56:55.219Z,1028.98
2018-11-27T18:58:22.509Z,1028.99
2018-11-27T18:59:49.810Z,1028.99
2018-11-27T19:01:17.274Z,1029.02
2018-11-27T19:02:44.436Z,1029.02
2018-11-27T19:04:11.765Z,1029.04
2018-11-27T19:05:38.922Z,1029.04
2018-11-27T19:07:06.284Z,1029.02
2018-11-27T19:08:33.431Z,1029.04
2018-11-27T19:10:00.590Z,1029.05
2018-11-27T19:11:27.831Z,1029.05
2018-11-27T19:12:57.934Z,1029.03
2018-11-27T19:14:22.150Z,1029.00
2018-11-27T19:15:49.617Z,1028.94
2018-11-27T19:17:16.689Z,1028.94
2018-11-27T19:18:43.811Z,1028.95
2018-11-27T19:20:11.147Z,1028.96
2018-11-27T19:21:38.291Z,1028.97
2018-11-27T19:23:05.475Z,1028.99
2018-11-27T19:24:32.718Z,1029.01
2018-11-27T19:25:59.899Z,1029.00
2018-11-27T19:27:27.036Z,1029.02
2018-11-27T19:28:54.022Z,1029.01
2018-11-27T19:30:21.298Z,1029.02
2018-11-27T19:31:48.568Z,1029.07
2018-11-27T19:33:15.851Z,1029.09
2018-11-27T19:34:43.110Z,1029.11
2018-11-27T19:36:10.493Z,1029.15
2018-11-27T19:37:37.685Z,1029.18
2018-11-27T19:39:04.828Z,1029.18
2018-11-27T19:40:32.126Z,1029.19
2018-11-27T19:41:59.415Z,1029.23
2018-11-27T19:43:26.643Z,1029.24
2018-11-27T19:44:53.932Z,1029.27
2018-11-27T19:46:21.285Z,1029.31
2018-11-27T19:47:48.254Z,1029.31
2018-11-27T19:49:15.468Z,1029.33
2018-11-27T19:50:42.854Z,1029.35
2018-11-27T19:52:10.051Z,1029.35
2018-11-27T19:53:37.090Z,1029.38
2018-11-27T19:55:04.467Z,1029.39
2018-11-27T19:56:31.670Z,1029.41
2018-11-27T19:57:59.026Z,1029.42
2018-11-27T19:59:26.077Z,1029.43
2018-11-27T20:00:53.295Z,1029.42
2018-11-27T20:02:20.474Z,1029.43
2018-11-27T20:03:47.644Z,1029.44
2018-11-27T20:05:14.918Z,1029.45
2018-11-27T20:06:42.081Z,1029.47
2018-11-27T20:08:09.237Z,1029.46
2018-11-27T20:09:36.466Z,1029.48
2018-11-27T20:11:03.788Z,1029.45
2018-11-27T20:12:30.771Z,1029.44
2018-11-27T20:13:57.993Z,1029.48
2018-11-27T20:15:25.075Z,1029.51
2018-11-27T20:16:52.220Z,1029.53
2018-11-27T20:18:19.366Z,1029.54
2018-11-27T20:19:46.566Z,1029.56
2018-11-27T20:21:13.658Z,1029.59
2018-11-27T20:22:40.722Z,1029.59
2018-11-27T20:24:07.977Z,1029.62
2018-11-27T20:25:35.175Z,1029.66
2018-11-27T20:27:02.387Z,1029.71
2018-11-27T20:28:29.563Z,1029.75
2018-11-27T20:29:56.658Z,1029.79
2018-11-27T20:31:23.900Z,1029.80
2018-11-27T20:32:50.948Z,1029.82
2018-11-27T20:34:18.239Z,1029.82
2018-11-27T20:35:45.682Z,1029.80
2018-11-27T20:37:12.572Z,1029.81
2018-11-27T20:38:39.559Z,1029.81
2018-11-27T20:40:06.832Z,1029.85
2018-11-27T20:41:33.983Z,1029.86
2018-11-27T20:43:01.064Z,1029.92
2018-11-27T20:44:28.181Z,1029.93
2018-11-27T20:45:55.288Z,1029.94
2018-11-27T20:47:22.324Z,1029.96
2018-11-27T20:48:49.473Z,1029.98
2018-11-27T20:50:16.480Z,1030.01
2018-11-27T20:51:43.630Z,1030.05
2018-11-27T20:53:10.772Z,1030.08
2018-11-27T20:54:37.732Z,1030.11
2018-11-27T20:56:04.898Z,1030.12
2018-11-27T20:57:32.048Z,1030.14
2018-11-27T20:58:59.156Z,1030.14
2018-11-27T21:00:26.386Z,1030.11
2018-11-27T21:01:53.524Z,1030.10
2018-11-27T21:03:23.694Z,1030.14
2018-11-27T21:04:47.746Z,1030.15
2018-11-27T21:06:14.640Z,1030.15
2018-11-27T21:07:41.858Z,1030.17
2018-11-27T21:09:08.898Z,1030.18
2018-11-27T21:10:36.104Z,1030.21
2018-11-27T21:12:03.131Z,1030.19
2018-11-27T21:13:30.269Z,1030.20
2018-11-27T21:14:57.392Z,1030.19
2018-11-27T21:16:24.493Z,1030.22
2018-11-27T21:17:51.544Z,1030.23
2018-11-27T21:19:18.696Z,1030.23
2018-11-27T21:20:45.690Z,1030.24
2018-11-27T21:22:12.622Z,1030.21
2018-11-27T21:23:39.862Z,1030.18
2018-11-27T21:25:06.763Z,1030.16
2018-11-27T21:26:33.979Z,1030.15
2018-11-27T21:28:00.940Z,1030.12
2018-11-27T21:29:28.093Z,1030.18
2018-11-27T21:30:55.214Z,1030.25
2018-11-27T21:32:22.105Z,1030.29
2018-11-27T21:33:49.276Z,1030.33
2018-11-27T21:35:16.274Z,1030.29
2018-11-27T21:36:43.503Z,1030.32
2018-11-27T21:38:10.627Z,1030.37
2018-11-27T21:56:26.049Z,1030.39
2018-11-27T21:57:52.505Z,1030.41
2018-11-27T21:59:19.522Z,1030.46
2018-11-27T22:02:14.013Z,1030.42
2018-11-27T22:07:13.902Z,1030.50
2018-11-27T22:08:40.331Z,1030.56
2018-11-27T22:10:07.571Z,1030.63
2018-11-27T22:11:34.649Z,1030.77
2018-11-27T22:13:01.739Z,1030.71
2018-11-27T22:14:28.891Z,1030.74
2018-11-27T22:15:56.138Z,1030.72
2018-11-27T22:17:23.395Z,1030.71
2018-11-27T22:18:50.593Z,1030.70
2018-11-27T22:37:25.345Z,1030.67
2018-11-27T22:38:51.771Z,1030.65
2018-11-27T22:40:18.948Z,1030.64
2018-11-27T22:41:46.011Z,1030.63
2018-11-27T22:43:13.072Z,1030.65
2018-11-27T22:44:40.486Z,1030.68
2018-11-27T22:46:07.592Z,1030.69
2018-11-27T22:47:34.872Z,1030.70
2018-11-27T22:49:02.207Z,1030.72
2018-11-27T22:50:29.304Z,1030.68
2018-11-27T22:51:56.461Z,1030.70
2018-11-27T22:53:23.512Z,1030.72
2018-11-27T22:54:50.760Z,1030.73
2018-11-27T22:56:17.849Z,1030.76
2018-11-27T22:57:45.193Z,1030.76
2018-11-27T22:59:12.385Z,1030.78
2018-11-27T23:00:39.523Z,1030.79
2018-11-27T23:02:06.823Z,1030.80
2018-11-27T23:03:34.030Z,1030.83
2018-11-27T23:05:01.191Z,1030.82
2018-11-27T23:06:28.405Z,1030.81
2018-11-27T23:07:55.312Z,1030.83
2018-11-27T23:09:22.558Z,1030.83
2018-11-27T23:10:49.698Z,1030.79
2018-11-27T23:12:16.734Z,1030.76
2018-11-27T23:13:43.850Z,1030.74
2018-11-27T23:15:11.089Z,1030.72
2018-11-27T23:16:38.238Z,1030.70
2018-11-27T23:18:05.101Z,1030.71
2018-11-27T23:19:32.454Z,1030.71
2018-11-27T23:20:59.540Z,1030.71
2018-11-27T23:22:26.557Z,1030.70
2018-11-27T23:23:53.880Z,1030.71
2018-11-27T23:25:20.935Z,1030.71
2018-11-27T23:26:47.901Z,1030.72
2018-11-27T23:28:15.110Z,1030.76
2018-11-27T23:29:42.255Z,1030.74
2018-11-27T23:31:09.159Z,1030.76
2018-11-27T23:32:36.263Z,1030.76
2018-11-27T23:34:03.354Z,1030.73
2018-11-27T23:35:30.252Z,1030.74
2018-11-27T23:36:57.278Z,1030.75
2018-11-27T23:38:24.479Z,1030.76
2018-11-27T23:39:51.419Z,1030.76
2018-11-27T23:41:18.523Z,1030.79
2018-11-27T23:42:45.770Z,1030.80
2018-11-27T23:44:12.974Z,1030.79
2018-11-27T23:45:40.203Z,1030.81
2018-11-27T23:47:07.386Z,1030.82
2018-11-27T23:48:34.478Z,1030.80
2018-11-27T23:50:01.588Z,1030.77
2018-11-27T23:51:28.828Z,1030.76
2018-11-27T23:52:56.107Z,1030.75
2018-11-27T23:54:26.249Z,1030.78
2018-11-27T23:55:50.270Z,1030.85
2018-11-27T23:57:17.504Z,1030.89
2018-11-27T23:58:44.422Z,1030.89
